Flight Track Log - Related Links

Times and Time Zones

All times are in EDT time to prevent confusion due to time zone crossing. See the CHQ6027 flight status page for this flight to view local times or setup timezone preferences in your user account.

Time Position Orientation Groundspeed Altitude Reporting Facility
EDT Latitude Longitude Course Direction KTS MPH feet Rate Location/Type
Fri 05:39:23 AM 42.7256 -73.8053 261° West 159 183 1,300  Level Boston Center
Fri 05:40:35 AM 42.7186 -73.8617 318° Northwest 199 229 3,900 2,238 Climbing Boston Center
Fri 05:41:29 AM 42.7556 -73.9075 323° Northwest 224 258 6,000 2,263 Climbing Boston Center
Fri 05:42:29 AM 42.8111 -73.9656 320° Northwest 236 272 8,200 2,150 Climbing Boston Center
Fri 05:43:29 AM 42.8644 -74.0264 282° West 249 287 10,300 1,767 Climbing Boston Center
Fri 05:45:29 AM 42.8969 -74.2342 272° West 288 331 13,500 1,633 Climbing Boston Center
Fri 05:46:29 AM 42.8994 -74.3392 272° West 312 359 15,200 1,700 Climbing Boston Center
Fri 05:47:29 AM 42.9033 -74.4725 272° West 312 359 16,900 1,750 Climbing Boston Center
Fri 05:48:29 AM 42.9056 -74.5775 272° West 312 359 18,700 2,000 Climbing Boston Center
Fri 05:49:29 AM 42.9092 -74.7081 271° West 306 352 20,900 2,050 Climbing Boston Center
Fri 05:50:29 AM 42.9111 -74.8242 271° West 306 352 22,800 1,700 Climbing Boston Center
Fri 05:51:29 AM 42.9131 -74.9292 273° West 306 352 24,300 1,750 Climbing Boston Center
Fri 05:52:29 AM 42.9167 -75.0428 270° West 306 352 26,300 1,850 Climbing Boston Center
Fri 05:53:29 AM 42.9161 -75.1533 273° West 306 352 28,000 1,550 Climbing Boston Center
Fri 05:54:29 AM 42.9197 -75.2614 272° West 301 346 29,400 1,150 Climbing Boston Center
Fri 05:55:29 AM 42.9231 -75.3806 271° West 301 346 30,300 900 Climbing Boston Center
Fri 05:56:29 AM 42.9239 -75.5025 271° West 315 362 31,200 850 Climbing Boston Center
Fri 05:57:29 AM 42.9247 -75.6331 273° West 330 380 32,000 800 Climbing Boston Center
Fri 05:58:29 AM 42.9292 -75.7694 270° West 349 402 32,800 678 Climbing Boston Center
Fri 06:00:26 AM 42.9303 -76.0569 271° West 360 414 34,000 407 Climbing Cleveland Center
Fri 06:01:26 AM 42.9317 -76.2072 271° West 373 429 34,000  Level Cleveland Center
Fri 06:02:26 AM 42.9331 -76.3547 271° West 388 447 34,000  Level Cleveland Center
Fri 06:03:26 AM 42.9342 -76.4964 270° West 388 447 34,000  Level Cleveland Center
Fri 06:04:26 AM 42.9350 -76.6439 270° West 388 447 34,000  Level Cleveland Center
Fri 06:05:26 AM 42.9356 -76.7858 270° West 388 447 34,000  Level Cleveland Center
Fri 06:06:26 AM 42.9364 -76.9361 270° West 388 447 34,000  Level Cleveland Center
Fri 06:07:26 AM 42.9367 -77.0806 270° West 388 447 34,000  Level Cleveland Center
Fri 06:08:26 AM 42.9367 -77.2253 271° West 383 441 34,000  Level Cleveland Center
Fri 06:09:26 AM 42.9386 -77.3669 268° West 383 441 34,000  Level Cleveland Center
Fri 06:10:26 AM 42.9342 -77.5064 267° West 383 441 34,000  Level Cleveland Center
Fri 06:11:26 AM 42.9292 -77.6397 266° West 362 417 34,000  Level Cleveland Center
Fri 06:12:26 AM 42.9222 -77.7761 265° West 362 417 34,000  Level Cleveland Center
Fri 06:13:26 AM 42.9131 -77.9156 266° West 373 429 34,000  Level Cleveland Center
Fri 06:14:26 AM 42.9058 -78.0606 265° West 383 441 34,000  Level Cleveland Center
Fri 06:15:26 AM 42.8964 -78.2053 266° West 388 447 34,000  Level Cleveland Center
Fri 06:16:26 AM 42.8906 -78.3303 265° West 383 441 34,000  Level Cleveland Center
Fri 06:17:26 AM 42.8825 -78.4608 265° West 358 412 34,000  Level Cleveland Center
Fri 06:18:26 AM 42.8742 -78.5803 265° West 342 394 34,000  Level Cleveland Center
Fri 06:19:26 AM 42.8661 -78.7108 266° West 342 394 34,000  Level Cleveland Center
Fri 06:20:26 AM 42.8597 -78.8442 263° West 352 405 34,000  Level Cleveland Center
Fri 06:21:26 AM 42.8472 -78.9889 265° West 373 429 34,000  Level Cleveland Center
Fri 06:22:26 AM 42.8386 -79.1278 265° West 378 435 34,000  Level Cleveland Center
Fri 06:23:26 AM 42.8300 -79.2753 266° West 389 448 34,000  Level Cleveland Center
Fri 06:24:26 AM 42.8214 -79.4367 264° West 389 448 34,000  Level Cleveland Center
Fri 06:25:26 AM 42.8103 -79.5814 265° West 389 448 34,000 -300 Level Cleveland Center
Fri 06:26:26 AM 42.8008 -79.7258 265° West 389 448 33,400 -1,000 Descending Cleveland Center
Fri 06:27:26 AM 42.7914 -79.8647 260° West 389 448 32,000 -1,450 Descending Cleveland Center
Fri 06:28:26 AM 42.7733 -80.0033 265° West 389 448 30,500 -1,450 Descending Cleveland Center
Fri 06:29:26 AM 42.7636 -80.1561 263° West 389 448 29,100 -1,200 Descending Cleveland Center
Fri 06:30:26 AM 42.7517 -80.2864 266° West 400 460 28,100 -550 Descending Cleveland Center
Fri 06:31:26 AM 42.7436 -80.4447 263° West 405 466 28,000 -50 Descending Cleveland Center
Fri 06:32:26 AM 42.7311 -80.5917 264° West 405 466 28,000  Level Cleveland Center
Fri 06:33:26 AM 42.7186 -80.7414 263° West 400 460 28,000 -150 Level Cleveland Center
Fri 06:34:26 AM 42.7058 -80.8856 261° West 394 453 27,700 -600 Descending Cleveland Center
Fri 06:35:26 AM 42.6886 -81.0381 261° West 408 470 26,800 -1,000 Descending Cleveland Center
Fri 06:36:26 AM 42.6711 -81.1847 262° West 408 470 25,700 -1,250 Descending Cleveland Center
Fri 06:37:26 AM 42.6581 -81.3172 261° West 385 443 24,300 -1,450 Descending Cleveland Center
Fri 06:38:26 AM 42.6403 -81.4694 260° West 374 430 22,800 -1,550 Descending Cleveland Center
Fri 06:39:26 AM 42.6203 -81.6158 262° West 379 436 21,200 -1,600 Descending Cleveland Center
Fri 06:40:26 AM 42.6064 -81.7539 261° West 379 436 19,600 -1,550 Descending Cleveland Center
Fri 06:41:26 AM 42.5903 -81.8861 262° West 389 448 18,100 -1,550 Descending Cleveland Center
Fri 06:42:26 AM 42.5761 -82.0239 259° West 389 448 16,500 -1,550 Descending Cleveland Center
Fri 06:43:26 AM 42.5578 -82.1561 260° West 375 432 15,000 -1,636 Descending Cleveland Center
Fri 06:44:05 AM 42.5461 -82.2431 262° West 337 388 13,800 -1,697 Descending Cleveland Center
Fri 06:45:05 AM 42.5317 -82.3753 259° West 341 392 12,200 -991 Descending Cleveland Center
Fri 06:45:54 AM 42.5175 -82.4761 259° West 336 387 12,000 -148 Descending Cleveland Center
Fri 06:46:26 AM 42.5106 -82.5239 248° West 340 391 12,000  Level Cleveland Center
Fri 06:47:26 AM 42.4728 -82.6494 249° West 333 383 12,000 -450 Level Cleveland Center
Fri 06:48:26 AM 42.4417 -82.7608 255° West 327 376 11,100 -1,067 Descending Cleveland Center
Fri 06:48:56 AM 42.4325 -82.8083 256° West 293 337 10,400 -1,300 Descending Cleveland Center
Fri 06:49:26 AM 42.4231 -82.8614 261° West 304 350 9,800 -1,300 Descending Cleveland Center
Fri 06:49:56 AM 42.4181 -82.9036 258° West 255 293 9,100 -1,700 Descending Cleveland Center
Fri 06:50:26 AM 42.4108 -82.9483 258° West 261 300 8,100 -1,672 Descending Cleveland Center
Fri 06:50:57 AM 42.4036 -82.9931 258° West 240 276 7,400 -1,304 Descending Cleveland Center
Fri 06:51:58 AM 42.3914 -83.0742 250° West 226 260 6,100 -1,293 Descending Cleveland Center
Fri 06:52:53 AM 42.3764 -83.1306 245° Southwest 200 230 4,900 -1,326 Descending FAA TRACON SMA TRACON (SMA)
Fri 06:53:33 AM 42.3600 -83.1789 246° West 196 226 4,000 -900 Descending FAA TRACON SMA TRACON (SMA)
Fri 06:54:13 AM 42.3450 -83.2239 229° Southwest 168 193 3,700 -750 Descending FAA TRACON SMA TRACON (SMA)
Fri 06:54:53 AM 42.3242 -83.2564 209° Southwest 173 199 3,000 -975 Descending FAA TRACON SMA TRACON (SMA)
Fri 06:55:33 AM 42.2972 -83.2767 209° Southwest 156 180 2,400 -750 Descending FAA TRACON SMA TRACON (SMA)
Fri 06:56:13 AM 42.2781 -83.2908 209° Southwest 132 152 2,000 -600 Descending FAA TRACON SMA TRACON (SMA)
Fri 06:56:53 AM 42.2558 -83.3072 209° Southwest 118 136 1,600 -675 Descending FAA TRACON SMA TRACON (SMA)
Fri 06:57:33 AM 42.2358 -83.3222 208° Southwest 124 143 1,100 -600 Descending FAA TRACON SMA TRACON (SMA)
Fri 06:58:13 AM 42.2194 -83.3342 208° Southwest 137 158 800 -450 Descending FAA TRACON SMA TRACON (SMA)

Login

Don't have an account? Register now (free) for customized features, flight alerts, and more!